Terminal Aerodrome Forecast
Issued by NWS Milwaukee/Sullivan, WI

Home | Current Version | Previous Version | Text Only | Print | Product List | Glossary On
Versions: 1 2 3 4 5 6 7 8 9 10 11 12 13 14 15 16 17 18 19 20 21 22 23 24 25 26 27 28 29 30 31 32 33
000
FTUS43 KMKX 221120
TAFMKE
TAF
KMKE 221120Z 2212/2318 23011KT P6SM -SHRA BKN080 WS020/25040KT
     FM221300 23012G25KT P6SM -SHRA SCT060 OVC090
     FM221500 23013G25KT P6SM FEW060 SCT090 BKN250
     FM230000 21011KT P6SM VCTS SCT035CB BKN080
     FM230500 22009KT P6SM TSRA BKN020 OVC035CB
     FM230700 22009KT 6SM SHRA BR BKN010 OVC040
     FM231000 30008KT P6SM BKN020=

USA.gov is the U.S. government's official web portal to all federal, state and local government web resources and services.